createdAt,value
2016-07-13T00:00:31.017Z,95.7
2016-07-13T00:01:31.019Z,95.41
2016-07-13T00:02:31.022Z,95.03
2016-07-13T00:03:31.021Z,95.03
2016-07-13T00:04:31.026Z,95.51
2016-07-13T00:05:31.027Z,95.22
2016-07-13T00:06:31.026Z,95.41
2016-07-13T00:07:31.029Z,95.6
2016-07-13T00:08:31.030Z,95.6
2016-07-13T00:09:31.034Z,94.84
2016-07-13T00:10:31.033Z,94.84
2016-07-13T00:11:31.035Z,95.6
2016-07-13T00:12:31.038Z,94.93
2016-07-13T00:13:31.038Z,94.93
2016-07-13T00:14:31.038Z,95.31
2016-07-13T00:15:31.046Z,94.84
2016-07-13T00:16:31.046Z,96.08
2016-07-13T00:17:31.046Z,95.31
2016-07-13T00:18:31.048Z,95.22
2016-07-13T00:19:31.062Z,95.7
2016-07-13T00:20:31.050Z,95.22
2016-07-13T00:21:31.054Z,95.22
2016-07-13T00:22:31.054Z,95.79
2016-07-13T00:23:31.055Z,95.79
2016-07-13T00:24:31.058Z,95.89
2016-07-13T00:25:31.067Z,94.84
2016-07-13T00:26:31.058Z,95.31
2016-07-13T00:27:31.061Z,95.89
2016-07-13T00:28:31.062Z,95.22
2016-07-13T00:29:31.063Z,95.7
2016-07-13T00:30:31.071Z,95.7
2016-07-13T00:31:31.077Z,95.89
2016-07-13T00:32:31.069Z,95.6
2016-07-13T00:33:31.070Z,95.89
2016-07-13T00:34:31.075Z,95.6
2016-07-13T00:35:31.075Z,95.41
2016-07-13T00:36:31.074Z,95.89
2016-07-13T00:37:31.079Z,95.6
2016-07-13T00:38:31.078Z,95.79
2016-07-13T00:39:31.083Z,95.89
2016-07-13T00:40:31.083Z,95.89
2016-07-13T00:41:31.087Z,95.7
2016-07-13T00:42:31.087Z,95.89
2016-07-13T00:43:31.087Z,95.7
2016-07-13T00:44:31.091Z,95.7
2016-07-13T00:45:31.092Z,95.31
2016-07-13T00:46:31.095Z,95.6
2016-07-13T00:47:31.095Z,95.31
2016-07-13T00:48:31.095Z,94.93
2016-07-13T00:49:31.099Z,95.31
2016-07-13T00:50:31.100Z,95.12
2016-07-13T00:51:31.099Z,95.6
2016-07-13T00:52:31.102Z,95.22
2016-07-13T00:53:31.111Z,95.51
2016-07-13T00:54:31.111Z,95.12
2016-07-13T00:55:31.108Z,95.51
2016-07-13T00:56:31.108Z,95.51
2016-07-13T00:57:31.112Z,95.07
2016-07-13T00:58:31.111Z,94.98
2016-07-13T00:59:31.116Z,94.98
2016-07-13T01:00:31.116Z,94.98
2016-07-13T01:01:31.120Z,94.6
2016-07-13T01:02:31.120Z,94.79
2016-07-13T01:03:31.120Z,94.79
2016-07-13T01:04:31.124Z,94.89
2016-07-13T01:05:31.124Z,94.69
2016-07-13T01:06:31.128Z,94.74
2016-07-13T01:07:31.128Z,94.93
2016-07-13T01:08:31.128Z,94.89
2016-07-13T01:09:31.128Z,94.6
2016-07-13T01:10:31.129Z,94.36
2016-07-13T01:11:31.131Z,94.74
2016-07-13T01:12:31.137Z,94.65
2016-07-13T01:13:31.136Z,94.45
2016-07-13T01:14:31.136Z,94.26
2016-07-13T01:15:31.141Z,94.17
2016-07-13T01:16:31.141Z,94.26
2016-07-13T01:17:31.145Z,94.26
2016-07-13T01:18:31.144Z,94.17
2016-07-13T01:19:31.145Z,94.17
2016-07-13T01:20:31.149Z,94.07
2016-07-13T01:21:31.149Z,94.17
2016-07-13T01:22:31.154Z,94.07
2016-07-13T01:23:31.153Z,94.26
2016-07-13T01:24:31.154Z,93.98
2016-07-13T01:25:31.157Z,93.98
2016-07-13T01:26:31.158Z,93.98
2016-07-13T01:27:31.157Z,93.79
2016-07-13T01:28:31.162Z,93.5
2016-07-13T01:29:31.161Z,93.79
2016-07-13T01:30:31.165Z,93.88
2016-07-13T01:31:31.166Z,93.69
2016-07-13T01:32:31.165Z,93.79
2016-07-13T01:33:31.173Z,93.79
2016-07-13T01:34:31.170Z,93.79
2016-07-13T01:35:31.170Z,93.88
2016-07-13T01:36:31.173Z,93.79
2016-07-13T01:37:31.174Z,93.88
2016-07-13T01:38:31.170Z,93.79
2016-07-13T01:39:31.174Z,94.07
2016-07-13T01:40:31.178Z,93.79
2016-07-13T01:41:31.182Z,93.88
2016-07-13T01:42:31.182Z,93.98
2016-07-13T01:43:31.187Z,93.79
2016-07-13T01:44:31.186Z,93.69
2016-07-13T01:45:31.186Z,93.88
2016-07-13T01:46:31.195Z,93.98
2016-07-13T01:47:31.191Z,93.98
2016-07-13T01:48:31.194Z,94.17
2016-07-13T01:49:31.194Z,93.98
2016-07-13T01:50:31.195Z,93.98
2016-07-13T01:51:31.198Z,94.17
2016-07-13T01:52:31.198Z,93.98
2016-07-13T01:53:31.199Z,93.88
2016-07-13T01:54:31.203Z,93.79
2016-07-13T01:55:31.202Z,93.98
2016-07-13T01:56:31.199Z,93.88
2016-07-13T01:57:31.207Z,93.88
2016-07-13T01:58:31.207Z,93.88
2016-07-13T01:59:31.211Z,93.98
2016-07-13T02:00:31.211Z,93.88
2016-07-13T02:01:31.211Z,93.59
2016-07-13T02:02:31.215Z,93.59
2016-07-13T02:03:31.215Z,93.98
2016-07-13T02:04:31.215Z,93.79
2016-07-13T02:05:31.218Z,93.79
2016-07-13T02:06:31.219Z,93.88
2016-07-13T02:07:31.224Z,93.98
2016-07-13T02:08:31.223Z,93.98
2016-07-13T02:09:31.226Z,94.07
2016-07-13T02:10:31.227Z,94.07
2016-07-13T02:11:31.227Z,94.07
2016-07-13T02:12:31.231Z,94.17
2016-07-13T02:13:31.232Z,94.36
2016-07-13T02:14:31.230Z,94.26
2016-07-13T02:15:31.239Z,94.26
2016-07-13T02:16:31.236Z,94.45
2016-07-13T02:17:31.235Z,94.07
2016-07-13T02:18:31.239Z,94.65
2016-07-13T02:19:31.244Z,93.88
2016-07-13T02:20:31.240Z,94.36
2016-07-13T02:21:31.243Z,94.45
2016-07-13T02:22:31.244Z,94.36
2016-07-13T02:23:31.248Z,94.17
2016-07-13T02:24:31.247Z,94.17
2016-07-13T02:25:31.260Z,94.26
2016-07-13T02:26:31.259Z,94.36
2016-07-13T02:27:31.251Z,94.36
2016-07-13T02:28:31.260Z,94.26
2016-07-13T02:29:31.256Z,93.98
2016-07-13T02:30:30.532Z,93.98
2016-07-13T02:31:31.256Z,94.55
2016-07-13T02:32:31.260Z,94.55
2016-07-13T02:33:31.271Z,94.55
2016-07-13T02:34:31.263Z,94.55
2016-07-13T02:35:31.264Z,94.36
2016-07-13T02:36:31.264Z,94.26
2016-07-13T02:37:31.267Z,94.36
2016-07-13T02:38:31.268Z,94.36
2016-07-13T02:39:31.267Z,94.45
2016-07-13T02:40:31.267Z,94.65
2016-07-13T02:41:31.272Z,94.84
2016-07-13T02:42:31.279Z,94.84
2016-07-13T02:43:31.275Z,94.84
2016-07-13T02:44:31.276Z,94.65
2016-07-13T02:45:31.275Z,94.84
2016-07-13T02:46:31.279Z,94.65
2016-07-13T02:47:31.280Z,94.74
2016-07-13T02:48:31.280Z,94.55
2016-07-13T02:49:31.284Z,94.93
2016-07-13T02:50:31.283Z,95.12
2016-07-13T02:51:31.284Z,95.12
2016-07-13T02:52:31.287Z,94.74
2016-07-13T02:53:31.288Z,94.74
2016-07-13T02:54:31.293Z,95.12
2016-07-13T02:55:31.302Z,95.12
2016-07-13T02:56:31.291Z,94.84
2016-07-13T02:57:31.296Z,94.74
2016-07-13T02:58:31.297Z,95.12
2016-07-13T02:59:31.295Z,94.93
2016-07-13T03:00:31.300Z,95.12
2016-07-13T03:01:31.300Z,94.93
2016-07-13T03:02:31.300Z,95.03
2016-07-13T03:03:31.310Z,94.93
2016-07-13T03:04:31.305Z,94.93
2016-07-13T03:05:31.309Z,94.93
2016-07-13T03:06:31.308Z,94.93
2016-07-13T03:07:31.309Z,95.12
2016-07-13T03:08:31.312Z,95.03
2016-07-13T03:09:31.312Z,95.03
2016-07-13T03:10:31.865Z,94.65
2016-07-13T03:11:31.316Z,94.84
2016-07-13T03:12:31.316Z,94.65
2016-07-13T03:13:31.317Z,94.65
2016-07-13T03:14:31.321Z,94.65
2016-07-13T03:15:31.321Z,94.93
2016-07-13T03:16:31.320Z,94.93
2016-07-13T03:17:31.325Z,94.93
2016-07-13T03:18:31.325Z,94.84
2016-07-13T03:19:31.325Z,94.84
2016-07-13T03:20:31.330Z,95.03
2016-07-13T03:21:31.329Z,94.84
2016-07-13T03:22:31.330Z,94.89
2016-07-13T03:23:31.332Z,94.79
2016-07-13T03:24:31.333Z,94.79
2016-07-13T03:25:31.333Z,94.98
2016-07-13T03:26:31.341Z,94.79
2016-07-13T03:27:31.337Z,94.79
2016-07-13T03:28:31.337Z,94.98
2016-07-13T03:29:31.341Z,94.89
2016-07-13T03:30:31.341Z,94.79
2016-07-13T03:31:31.346Z,94.98
2016-07-13T03:32:31.345Z,94.6
2016-07-13T03:33:31.346Z,94.79
2016-07-13T03:34:31.350Z,94.6
2016-07-13T03:35:31.349Z,94.6
2016-07-13T03:36:31.350Z,94.6
2016-07-13T03:37:31.354Z,94.79
2016-07-13T03:38:31.354Z,94.5
2016-07-13T03:39:31.354Z,94.5
2016-07-13T03:40:31.358Z,94.93
2016-07-13T03:41:31.358Z,94.65
2016-07-13T03:42:31.358Z,94.84
2016-07-13T03:43:31.363Z,94.65
2016-07-13T03:44:31.362Z,95.12
2016-07-13T03:45:31.366Z,94.93
2016-07-13T03:46:31.366Z,95.22
2016-07-13T03:47:31.366Z,95.03
2016-07-13T03:48:31.371Z,95.61
2016-07-13T03:49:31.371Z,95.22
2016-07-13T03:50:31.370Z,94.55
2016-07-13T03:51:31.374Z,94.55
2016-07-13T03:52:31.383Z,95.61
2016-07-13T03:53:31.374Z,95.03
2016-07-13T03:54:31.379Z,95.12
2016-07-13T03:55:31.379Z,95.07
2016-07-13T03:56:31.379Z,95.7
2016-07-13T03:57:31.383Z,95.36
2016-07-13T03:58:31.382Z,95.12
2016-07-13T03:59:31.383Z,95.56
2016-07-13T04:00:31.391Z,95.75
2016-07-13T04:01:31.387Z,96.03
2016-07-13T04:02:31.835Z,95.65
2016-07-13T04:03:31.391Z,95.94
2016-07-13T04:04:31.390Z,96.03
2016-07-13T04:05:31.390Z,95.94
2016-07-13T04:06:31.395Z,96.03
2016-07-13T04:07:31.395Z,95.94
2016-07-13T04:08:31.394Z,96.13
2016-07-13T04:09:31.399Z,96.03
2016-07-13T04:10:31.399Z,96.03
2016-07-13T04:11:31.402Z,95.75
2016-07-13T04:12:31.406Z,95.94
2016-07-13T04:13:31.403Z,95.94
2016-07-13T04:14:31.406Z,95.75
2016-07-13T04:15:31.406Z,95.75
2016-07-13T04:16:31.411Z,95.84
2016-07-13T04:17:31.419Z,95.65
2016-07-13T04:18:31.410Z,95.84
2016-07-13T04:19:31.410Z,96.18
2016-07-13T04:20:31.415Z,95.7
2016-07-13T04:21:31.414Z,95.61
2016-07-13T04:22:31.420Z,95.56
2016-07-13T04:23:31.414Z,95.51
2016-07-13T04:24:31.423Z,95.41
2016-07-13T04:25:30.695Z,95.61
2016-07-13T04:26:31.419Z,95.31
2016-07-13T04:27:31.422Z,95.22
2016-07-13T04:28:31.423Z,95.98
2016-07-13T04:29:31.447Z,95.03
2016-07-13T04:30:31.427Z,94.65
2016-07-13T04:31:31.427Z,94.74
2016-07-13T04:32:31.431Z,94.65
2016-07-13T04:33:31.431Z,94.93
2016-07-13T04:34:31.431Z,95.22
2016-07-13T04:35:31.435Z,94.74
2016-07-13T04:36:31.435Z,95.03
2016-07-13T04:37:31.435Z,94.4
2016-07-13T04:38:31.451Z,94.74
2016-07-13T04:39:31.440Z,95.27
2016-07-13T04:40:31.445Z,94.6
2016-07-13T04:41:31.439Z,94.45
2016-07-13T04:42:31.447Z,94.21
2016-07-13T04:43:31.443Z,94.21
2016-07-13T04:44:31.446Z,94.21
2016-07-13T04:45:30.727Z,94.21
2016-07-13T04:46:31.457Z,94.02
2016-07-13T04:47:31.455Z,93.83
2016-07-13T04:48:31.456Z,93.93
2016-07-13T04:49:31.451Z,94.02
2016-07-13T04:50:31.454Z,94.17
2016-07-13T04:51:31.456Z,93.88
2016-07-13T04:52:30.740Z,93.59
2016-07-13T04:53:31.454Z,92.97
2016-07-13T04:54:31.463Z,93.35
2016-07-13T04:55:31.464Z,92.34
2016-07-13T04:56:31.459Z,92.05
2016-07-13T04:57:31.464Z,90.9
2016-07-13T04:58:31.468Z,90.9
2016-07-13T04:59:31.464Z,90.66
2016-07-13T05:00:31.467Z,90.52
2016-07-13T05:01:31.467Z,90.04
2016-07-13T05:02:31.480Z,89.56
2016-07-13T05:03:31.471Z,89.27
2016-07-13T05:04:31.472Z,88.98
2016-07-13T05:05:31.476Z,88.51
2016-07-13T05:06:31.476Z,88.89
2016-07-13T05:07:31.477Z,88.31
2016-07-13T05:08:31.475Z,88.31
2016-07-13T05:09:31.479Z,88.12
2016-07-13T05:10:31.481Z,87.84
2016-07-13T05:11:31.481Z,87.93
2016-07-13T05:12:31.484Z,87.26
2016-07-13T05:13:31.485Z,86.97
2016-07-13T05:14:31.485Z,86.88
2016-07-13T05:15:30.768Z,87.45
2016-07-13T05:16:31.488Z,87.26
2016-07-13T05:17:31.493Z,87.07
2016-07-13T05:18:31.493Z,87.26
2016-07-13T05:19:31.492Z,86.68
2016-07-13T05:20:31.501Z,86.97
2016-07-13T05:21:31.495Z,86.54
2016-07-13T05:22:31.496Z,86.44
2016-07-13T05:23:31.501Z,86.25
2016-07-13T05:24:31.500Z,85.67
2016-07-13T05:25:31.501Z,85.58
2016-07-13T05:26:31.510Z,85.48
2016-07-13T05:27:31.505Z,85.38
2016-07-13T05:28:31.504Z,84.71
2016-07-13T05:29:31.509Z,84.61
2016-07-13T05:30:31.510Z,84.37
2016-07-13T05:31:31.513Z,83.94
2016-07-13T05:32:31.526Z,83.98
2016-07-13T05:33:31.514Z,83.98
2016-07-13T05:34:31.519Z,83.51
2016-07-13T05:35:31.517Z,83.03
2016-07-13T05:36:31.518Z,82.74
2016-07-13T05:37:31.521Z,82.45
2016-07-13T05:38:31.521Z,81.82
2016-07-13T05:39:31.521Z,81.43
2016-07-13T05:40:31.526Z,80.32
2016-07-13T05:41:31.525Z,79.94
2016-07-13T05:42:31.524Z,79.46
2016-07-13T05:43:31.525Z,79.02
2016-07-13T05:44:31.529Z,78.73
2016-07-13T05:45:30.810Z,78.15
2016-07-13T05:46:31.533Z,77.96
2016-07-13T05:47:31.535Z,77.76
2016-07-13T05:48:31.534Z,77.38
2016-07-13T05:49:31.542Z,76.9
2016-07-13T05:50:31.537Z,77.29
2016-07-13T05:51:31.536Z,77.38
2016-07-13T05:52:31.541Z,77.29
2016-07-13T05:53:31.542Z,77.19
2016-07-13T05:54:31.541Z,76.67
2016-07-13T05:55:31.545Z,76.71
2016-07-13T05:56:31.553Z,76.77
2016-07-13T05:57:31.550Z,76.39
2016-07-13T05:58:31.550Z,76.29
2016-07-13T05:59:31.550Z,76
2016-07-13T06:00:31.554Z,75.32
2016-07-13T06:01:31.663Z,76
2016-07-13T06:02:31.554Z,75.9
2016-07-13T06:03:31.563Z,75.71
2016-07-13T06:04:31.561Z,75.52
2016-07-13T06:05:31.558Z,75.81
2016-07-13T06:06:31.565Z,76
2016-07-13T06:07:31.562Z,75.32
2016-07-13T06:08:30.847Z,75.42
2016-07-13T06:09:31.614Z,75.42
2016-07-13T06:10:31.566Z,75.9
2016-07-13T06:11:31.566Z,75.81
2016-07-13T06:12:31.570Z,74.69
2016-07-13T06:13:31.569Z,72.84
2016-07-13T06:14:31.570Z,71.08
2016-07-13T06:15:31.574Z,69.25
2016-07-13T06:16:31.575Z,68.71
2016-07-13T06:17:31.574Z,68.04
2016-07-13T06:18:31.579Z,67.84
2016-07-13T06:19:31.579Z,67.84
2016-07-13T06:20:31.577Z,67.36
2016-07-13T06:21:31.583Z,67.65
2016-07-13T06:22:31.583Z,67.55
2016-07-13T06:23:31.582Z,67.42
2016-07-13T06:24:31.587Z,66.85
2016-07-13T06:25:31.587Z,67.03
2016-07-13T06:26:31.590Z,66.91
2016-07-13T06:27:31.591Z,67.39
2016-07-13T06:28:31.591Z,67.39
2016-07-13T06:29:31.594Z,67.26
2016-07-13T06:30:31.596Z,68.03
2016-07-13T06:31:31.596Z,67.93
2016-07-13T06:32:31.599Z,67.74
2016-07-13T06:33:31.599Z,68.41
2016-07-13T06:34:31.600Z,67.74
2016-07-13T06:35:31.604Z,68.03
2016-07-13T06:36:31.603Z,67.83
2016-07-13T06:37:31.604Z,67.74
2016-07-13T06:38:31.607Z,67.45
2016-07-13T06:39:31.608Z,66.62
2016-07-13T06:40:31.608Z,66.24
2016-07-13T06:41:31.612Z,66.04
2016-07-13T06:42:31.612Z,65.75
2016-07-13T06:43:31.612Z,65.3
2016-07-13T06:44:31.616Z,65.3
2016-07-13T06:45:31.616Z,63.89
2016-07-13T06:46:31.621Z,63.31
2016-07-13T06:47:31.620Z,63.06
2016-07-13T06:48:31.620Z,62.28
2016-07-13T06:49:31.625Z,61.74
2016-07-13T06:50:31.624Z,60.71
2016-07-13T06:51:31.627Z,59.28
2016-07-13T06:52:31.628Z,58.54
2016-07-13T06:53:31.627Z,58.35
2016-07-13T06:54:31.632Z,57.87
2016-07-13T06:55:31.635Z,57.67
2016-07-13T06:56:31.632Z,57.38
2016-07-13T06:57:31.636Z,57.67
2016-07-13T06:58:31.637Z,57.38
2016-07-13T06:59:31.641Z,57.48
2016-07-13T07:00:31.641Z,57.06
2016-07-13T07:01:31.640Z,56.77
2016-07-13T07:02:31.645Z,56.87
2016-07-13T07:03:31.646Z,57.29
2016-07-13T07:04:30.924Z,56.96
2016-07-13T07:05:31.650Z,56.87
2016-07-13T07:06:31.649Z,56.13
2016-07-13T07:07:31.649Z,56
2016-07-13T07:08:31.654Z,56.58
2016-07-13T07:09:31.653Z,55.65
2016-07-13T07:10:31.657Z,55.35
2016-07-13T07:11:31.657Z,54.97
2016-07-13T07:12:31.663Z,54.13
2016-07-13T07:13:31.661Z,53.74
2016-07-13T07:14:50.562Z,53.83
2016-07-13T07:15:31.661Z,53.55
2016-07-13T07:16:31.664Z,53.93
2016-07-13T07:17:31.666Z,53.83
2016-07-13T07:18:31.661Z,53.83
2016-07-13T07:19:31.669Z,54.29
2016-07-13T07:20:31.670Z,54.58
2016-07-13T07:21:31.682Z,55.04
2016-07-13T07:22:31.673Z,55.71
2016-07-13T07:23:31.674Z,56
2016-07-13T07:24:31.677Z,55.98
2016-07-13T07:25:31.681Z,55.88
2016-07-13T07:26:31.682Z,56.46
2016-07-13T07:27:31.686Z,56.74
2016-07-13T07:28:31.681Z,56.94
2016-07-13T07:29:31.686Z,56.94
2016-07-13T07:30:31.689Z,56.81
2016-07-13T07:31:31.690Z,57.14
2016-07-13T07:32:31.689Z,57.1
2016-07-13T07:33:31.690Z,57.29
2016-07-13T07:34:31.697Z,57.14
2016-07-13T07:35:31.693Z,57.32
2016-07-13T07:36:31.694Z,56.74
2016-07-13T07:37:31.698Z,57.23
2016-07-13T07:38:31.697Z,56.26
2016-07-13T07:39:31.702Z,55.88
2016-07-13T07:40:31.702Z,55.1
2016-07-13T07:41:31.701Z,54.82
2016-07-13T07:42:35.110Z,54.24
2016-07-13T07:43:31.702Z,54.24
2016-07-13T07:44:31.706Z,53.75
2016-07-13T07:45:48.757Z,53.85
2016-07-13T07:46:31.710Z,53.75
2016-07-13T07:47:31.714Z,52.98
2016-07-13T07:48:49.714Z,52.59
2016-07-13T07:49:31.718Z,52.4
2016-07-13T07:50:31.718Z,51.65
2016-07-13T07:52:31.722Z,50.65
2016-07-13T07:53:31.722Z,49.58
2016-07-13T07:55:31.726Z,47.6
2016-07-13T07:56:31.726Z,46.75
2016-07-13T07:57:31.730Z,45.51
2016-07-13T07:58:31.730Z,44.2
2016-07-13T07:59:31.730Z,42.89
2016-07-13T08:00:31.734Z,41.28
2016-07-13T08:01:39.994Z,39.65
2016-07-13T08:02:31.734Z,38.62
2016-07-13T08:03:31.738Z,37.74
2016-07-13T08:04:45.886Z,36.3
2016-07-13T08:05:31.742Z,36.4
2016-07-13T08:06:31.742Z,36.1
2016-07-13T08:08:31.747Z,37.14
2016-07-13T08:09:31.750Z,37.52
2016-07-13T08:11:31.751Z,38.07
2016-07-13T08:12:31.754Z,38.25
2016-07-13T08:13:31.758Z,38.64
2016-07-13T08:14:31.753Z,38.23
2016-07-13T08:15:31.759Z,38.23
2016-07-13T08:16:31.763Z,38.23
2016-07-13T08:17:31.759Z,38.32
2016-07-13T08:18:45.910Z,38.32
2016-07-13T08:19:31.762Z,38.62
2016-07-13T08:20:31.763Z,38.99
2016-07-13T08:21:56.422Z,39.67
2016-07-13T08:22:31.767Z,38.4
2016-07-13T08:23:31.770Z,38.31
2016-07-13T08:24:31.871Z,38.13
2016-07-13T08:25:31.775Z,37.86
2016-07-13T08:26:31.774Z,37.96
2016-07-13T08:27:31.778Z,37.96
2016-07-13T08:28:52.783Z,37.76
2016-07-13T08:29:31.779Z,38.34
2016-07-13T08:30:31.063Z,38.32
2016-07-13T08:31:31.782Z,38.79
2016-07-13T08:32:31.787Z,39.55
2016-07-13T08:33:31.787Z,39.62
2016-07-13T08:34:31.795Z,40.4
2016-07-13T08:35:31.791Z,41.16
2016-07-13T08:36:31.791Z,40.77
2016-07-13T08:37:31.794Z,40.67
2016-07-13T08:38:50.347Z,40.5
2016-07-13T08:39:31.794Z,40.11
2016-07-13T08:40:31.799Z,39.65
2016-07-13T08:42:31.802Z,39.08
2016-07-13T08:43:31.804Z,38.32
2016-07-13T08:44:31.812Z,37.35
2016-07-13T08:45:31.807Z,36.69
2016-07-13T08:46:31.808Z,35.94
2016-07-13T08:47:31.812Z,36.04
2016-07-13T08:49:31.812Z,36.89
2016-07-13T08:50:31.915Z,37.18
2016-07-13T08:51:31.815Z,37.37
2016-07-13T08:52:35.478Z,37.74
2016-07-13T08:53:31.820Z,38.31
2016-07-13T08:54:31.819Z,38.89
2016-07-13T08:55:45.972Z,39.55
2016-07-13T08:56:31.827Z,40.11
2016-07-13T08:57:31.928Z,40.58
2016-07-13T08:58:31.826Z,41.16
2016-07-13T08:59:31.831Z,41.62
2016-07-13T09:00:31.833Z,42
2016-07-13T09:01:31.832Z,43.05
2016-07-13T09:02:55.240Z,44.12
2016-07-13T09:03:31.836Z,43.99
2016-07-13T09:04:31.840Z,44.26
2016-07-13T09:05:31.840Z,44.65
2016-07-13T09:06:31.839Z,44.82
2016-07-13T09:07:31.844Z,44.73
2016-07-13T09:08:31.844Z,45.38
2016-07-13T09:09:38.555Z,46.25
2016-07-13T09:10:31.848Z,45.86
2016-07-13T09:11:31.852Z,45.86
2016-07-13T09:12:46.016Z,46.03
2016-07-13T09:13:31.851Z,46.13
2016-07-13T09:14:31.855Z,46.81
2016-07-13T09:15:48.604Z,47.19
2016-07-13T09:16:31.859Z,47.58
2016-07-13T09:17:31.859Z,47.38
2016-07-13T09:19:31.864Z,47.45
2016-07-13T09:20:31.863Z,47.55
2016-07-13T09:21:31.869Z,48.23
2016-07-13T09:22:31.868Z,48.42
2016-07-13T09:23:31.870Z,48.23
2016-07-13T09:24:31.872Z,48.9
2016-07-13T09:25:31.875Z,49.27
2016-07-13T09:26:31.875Z,49.75
2016-07-13T09:27:31.876Z,49.46
2016-07-13T09:28:38.736Z,49.46
2016-07-13T09:29:31.880Z,49.39
2016-07-13T09:30:31.879Z,49.29
2016-07-13T09:31:53.436Z,49.46
2016-07-13T09:32:31.164Z,49.65
2016-07-13T09:33:31.888Z,49.84
2016-07-13T09:35:31.892Z,49.94
2016-07-13T09:36:31.892Z,50.52
2016-07-13T09:38:31.897Z,50.59
2016-07-13T09:39:31.896Z,50.49
2016-07-13T09:40:31.900Z,51.56
2016-07-13T09:41:31.900Z,51.58
2016-07-13T09:42:31.901Z,51.36
2016-07-13T09:43:31.904Z,52.04
2016-07-13T09:44:31.904Z,52.42
2016-07-13T09:45:31.908Z,52.52
2016-07-13T09:46:31.908Z,52.91
2016-07-13T09:47:38.215Z,52.42
2016-07-13T09:48:31.912Z,52.91
2016-07-13T09:49:32.056Z,52.81
2016-07-13T09:50:38.629Z,52.81
2016-07-13T09:51:31.916Z,53
2016-07-13T09:52:31.920Z,52.91
2016-07-13T09:53:51.120Z,53.77
2016-07-13T09:54:31.920Z,54.16
2016-07-13T09:55:31.925Z,54.44
2016-07-13T09:57:31.928Z,54.71
2016-07-13T09:58:31.928Z,54.8
2016-07-13T09:59:31.929Z,54.8
2016-07-13T10:00:32.032Z,55.48
2016-07-13T10:01:31.933Z,55.38
2016-07-13T10:02:31.937Z,55.55
2016-07-13T10:03:31.988Z,55.35
2016-07-13T10:04:31.941Z,56.41
2016-07-13T10:05:31.940Z,56.8
2016-07-13T10:06:52.144Z,57.15
2016-07-13T10:07:31.944Z,57.45
2016-07-13T10:08:31.945Z,58.02
2016-07-13T10:09:58.657Z,58.7
2016-07-13T10:10:31.948Z,59.34
2016-07-13T10:11:31.953Z,59.05
2016-07-13T10:12:31.952Z,59.63
2016-07-13T10:13:31.952Z,59.92
2016-07-13T10:14:31.957Z,60.21
2016-07-13T10:15:31.957Z,60.21
2016-07-13T10:16:31.967Z,60.94
2016-07-13T10:17:31.961Z,60.75
2016-07-13T10:18:31.966Z,61.04
2016-07-13T10:19:36.622Z,61.04
2016-07-13T10:20:31.965Z,61.23
2016-07-13T10:21:31.970Z,61.52
2016-07-13T10:22:46.118Z,61.33
2016-07-13T10:23:31.973Z,61.91
2016-07-13T10:24:31.973Z,61.91
2016-07-13T10:26:31.982Z,62.41
2016-07-13T10:27:31.988Z,62.8
2016-07-13T10:28:31.982Z,62.61
2016-07-13T10:29:31.978Z,62.41
2016-07-13T10:30:31.981Z,62.8
2016-07-13T10:31:31.982Z,62.23
2016-07-13T10:32:31.986Z,62.54
2016-07-13T10:33:31.990Z,62.45
2016-07-13T10:34:31.990Z,62.06
2016-07-13T10:36:31.995Z,61.9
2016-07-13T10:37:31.274Z,61.35
2016-07-13T10:38:31.997Z,60.68
2016-07-13T10:39:31.999Z,60.32
2016-07-13T10:40:31.999Z,59.55
2016-07-13T10:41:32.002Z,59.36
2016-07-13T10:42:46.151Z,58.62
2016-07-13T10:43:32.007Z,57.87
2016-07-13T10:44:32.006Z,57.39
2016-07-13T10:45:32.006Z,57.39
2016-07-13T10:46:32.011Z,56.84
2016-07-13T10:47:32.011Z,55.88
2016-07-13T10:48:32.010Z,56.16
2016-07-13T10:49:44.534Z,55.4
2016-07-13T10:50:32.015Z,54.94
2016-07-13T10:51:32.022Z,54.75
2016-07-13T10:52:49.771Z,54.68
2016-07-13T10:53:32.022Z,54.19
2016-07-13T10:54:32.023Z,54.19
2016-07-13T10:56:32.027Z,54
2016-07-13T10:57:32.031Z,53.74
2016-07-13T10:58:32.031Z,53.55
2016-07-13T10:59:37.938Z,53.28
2016-07-13T11:00:32.031Z,52.61
2016-07-13T11:01:32.035Z,53.09
2016-07-13T11:02:42.246Z,54.35
2016-07-13T11:03:32.039Z,54.41
2016-07-13T11:04:32.039Z,53.93
2016-07-13T11:05:44.754Z,52.87
2016-07-13T11:06:32.043Z,52.97
2016-07-13T11:07:32.043Z,53.35
2016-07-13T11:08:54.499Z,53.47
2016-07-13T11:09:32.047Z,52.99
2016-07-13T11:10:32.047Z,52.22
2016-07-13T11:12:32.051Z,50.7
2016-07-13T11:13:32.055Z,50.12
2016-07-13T11:14:32.054Z,50.76
2016-07-13T11:15:32.055Z,50.76
2016-07-13T11:16:32.055Z,50.76
2016-07-13T11:17:32.060Z,50.84
2016-07-13T11:18:32.063Z,51.13
2016-07-13T11:19:32.064Z,51.39
2016-07-13T11:20:32.063Z,51.68
2016-07-13T11:21:46.215Z,51.97
2016-07-13T11:22:32.068Z,51.39
2016-07-13T11:23:32.072Z,52.45
2016-07-13T11:25:32.072Z,52.55
2016-07-13T11:26:32.076Z,52.62
2016-07-13T11:27:32.075Z,52.91
2016-07-13T11:28:39.835Z,54.33
2016-07-13T11:29:32.080Z,54.33
2016-07-13T11:30:32.078Z,54.98
2016-07-13T11:31:44.443Z,55.56
2016-07-13T11:32:32.084Z,55.82
2016-07-13T11:33:32.084Z,56.88
2016-07-13T11:34:47.835Z,56.85
2016-07-13T11:35:32.087Z,57.24
2016-07-13T11:36:32.191Z,57.72
2016-07-13T11:38:32.196Z,58.75
2016-07-13T11:39:32.095Z,58.47
2016-07-13T11:40:32.099Z,58.56
2016-07-13T11:41:32.100Z,58.47
2016-07-13T11:42:31.380Z,58.65
2016-07-13T11:43:32.103Z,58.65
2016-07-13T11:44:39.668Z,59.14
2016-07-13T11:45:32.108Z,58.75
2016-07-13T11:46:32.110Z,58.44
2016-07-13T11:47:45.325Z,59.3
2016-07-13T11:48:32.115Z,59.3
2016-07-13T11:49:32.112Z,60.36
2016-07-13T11:50:46.261Z,61.29
2016-07-13T11:51:32.116Z,61.87
2016-07-13T11:52:32.116Z,62.06
2016-07-13T11:54:32.123Z,63.09
2016-07-13T11:55:32.125Z,63.28
2016-07-13T11:56:51.976Z,63.86
2016-07-13T11:57:32.129Z,64.98
2016-07-13T11:58:32.128Z,65.27
2016-07-13T12:00:32.132Z,66.23
2016-07-13T12:01:32.136Z,67.16
2016-07-13T12:02:32.141Z,67.25
2016-07-13T12:03:32.137Z,67.83
2016-07-13T12:04:32.151Z,68.41
2016-07-13T12:05:32.145Z,68.85
2016-07-13T12:06:32.144Z,69.34
2016-07-13T12:07:32.145Z,69.18
2016-07-13T12:08:32.149Z,70.1
2016-07-13T12:09:32.145Z,70.49
2016-07-13T12:10:32.144Z,70.58
2016-07-13T12:11:32.149Z,71.55
2016-07-13T12:12:32.153Z,71.45
2016-07-13T12:13:32.153Z,71.93
2016-07-13T12:14:32.153Z,72.12
2016-07-13T12:15:37.210Z,72.28
2016-07-13T12:16:32.156Z,72.28
2016-07-13T12:17:32.170Z,72.28
2016-07-13T12:18:46.305Z,72.95
2016-07-13T12:19:32.161Z,72.95
2016-07-13T12:20:32.166Z,72.95
2016-07-13T12:22:32.164Z,73.24
2016-07-13T12:23:32.170Z,73.24
2016-07-13T12:24:32.169Z,73.68
2016-07-13T12:25:32.169Z,73.91
2016-07-13T12:26:32.173Z,73.72
2016-07-13T12:27:32.174Z,73.81
2016-07-13T12:28:32.824Z,73.72
2016-07-13T12:29:32.178Z,73.04
2016-07-13T12:30:32.181Z,73.52
2016-07-13T12:31:34.334Z,73.52
2016-07-13T12:32:32.181Z,72.95
2016-07-13T12:33:32.190Z,72.66
2016-07-13T12:34:39.942Z,73.24
2016-07-13T12:35:32.186Z,72.79
2016-07-13T12:36:32.186Z,72.5
2016-07-13T12:37:50.642Z,72.69
2016-07-13T12:38:32.193Z,72.89
2016-07-13T12:39:32.194Z,72.69
2016-07-13T12:40:48.094Z,72.22
2016-07-13T12:41:32.206Z,72.02
2016-07-13T12:42:32.197Z,72.22
2016-07-13T12:43:57.718Z,71.73
2016-07-13T12:44:32.202Z,71.87
2016-07-13T12:45:32.303Z,71.39
2016-07-13T12:47:32.207Z,70.62
2016-07-13T12:48:32.207Z,70.72
2016-07-13T12:49:32.207Z,70.23
2016-07-13T12:50:32.206Z,70.52
2016-07-13T12:51:32.211Z,70.17
2016-07-13T12:52:32.211Z,70.07
2016-07-13T12:53:32.215Z,69.21
2016-07-13T12:54:32.214Z,69.69
2016-07-13T12:55:32.259Z,69.6
2016-07-13T12:56:37.775Z,69.69
2016-07-13T12:57:32.218Z,69.6
2016-07-13T12:58:32.219Z,69.6
2016-07-13T12:59:46.371Z,69.6
2016-07-13T13:00:32.223Z,69.6
2016-07-13T13:01:32.227Z,69.6
2016-07-13T13:02:55.431Z,69.5
2016-07-13T13:03:32.226Z,69.69
2016-07-13T13:04:32.230Z,70.17
2016-07-13T13:06:32.230Z,70.17
2016-07-13T13:07:32.234Z,70.75
2016-07-13T13:08:32.236Z,70.75
2016-07-13T13:09:32.236Z,71.14
2016-07-13T13:10:32.339Z,71.14
2016-07-13T13:11:32.239Z,71.04
2016-07-13T13:12:32.244Z,71
2016-07-13T13:13:32.248Z,71.33
2016-07-13T13:14:32.251Z,71.71
2016-07-13T13:15:37.404Z,71.14
2016-07-13T13:16:32.248Z,71.52